Airport ICAO


11:54 UTC

25°C

Clear skies


An affordable passengers' Moving Map for your aircraft. Made for the iPad and the iPhone
More information here

LFPG Charles De Gaulle


Paris FRANCE   VFR CAVOK


METAR LFPG 191130Z 16009KT 110V190 CAVOK 25/10 Q1025 NOSIG 0h24min

TAF LFPG 191100Z 1912/2018 18005KT CAVOK TX28/1915Z TN15/2005Z 0h54min





NOTAMS

OPEN